Time;durP1;ratioP1;P1;durP2;ratioP2;P2;SDS_P1;SDS_P2;PMS_P1;PMS_P2;Temp;Humidity;BMP_temperature;BMP_pressure;BME280_temperature;BME280_humidity;BME280_pressure;Samples;Min_cycle;Max_cycle;Signal;HPM_P1;HPM_P2
2022/06/01 00:00:15;;;;;;;18.87;6.37;;;;;;;17.24;100.00;100039.31;1780076;80;21212;-83
2022/06/01 00:03:22;;;;;;;15.48;6.15;;;;;;;17.21;100.00;100039.22;1779163;80;21192;-83
2022/06/01 00:06:28;;;;;;;20.85;6.45;;;;;;;17.18;100.00;100031.41;1780193;80;21204;-83
2022/06/01 00:09:28;;;;;;;18.42;6.83;;;;;;;17.14;100.00;100035.69;1778884;80;21173;-83
2022/06/01 00:12:21;;;;;;;15.85;6.67;;;;;;;17.10;100.00;100033.06;1778683;80;21737;-83
2022/06/01 00:15:26;;;;;;;15.67;6.63;;;;;;;17.08;100.00;100030.53;1781462;80;21236;-83
2022/06/01 00:18:26;;;;;;;27.77;7.47;;;;;;;17.08;100.00;100029.69;1785926;80;21173;-83
2022/06/01 00:21:32;;;;;;;14.45;6.35;;;;;;;17.07;100.00;100023.83;1785815;80;21188;-83
2022/06/01 00:24:39;;;;;;;15.00;5.95;;;;;;;17.05;100.00;100021.30;1785762;80;21189;-83
2022/06/01 00:27:44;;;;;;;18.27;5.72;;;;;;;17.03;100.00;100023.45;1785531;80;21184;-83
2022/06/01 00:30:51;;;;;;;19.60;6.95;;;;;;;17.01;100.00;100017.83;1784184;80;21228;-84
2022/06/01 00:34:00;;;;;;;13.03;6.40;;;;;;;16.98;100.00;100012.20;1784135;80;21165;-83
2022/06/01 00:37:06;;;;;;;19.48;5.25;;;;;;;16.96;100.00;100010.75;1785630;80;21196;-84
2022/06/01 00:40:13;;;;;;;14.20;5.00;;;;;;;16.94;100.00;100014.27;1785632;80;21464;-83
2022/06/01 00:43:32;;;;;;;20.17;6.20;;;;;;;16.91;100.00;100007.29;1785793;80;21164;-83
2022/06/01 00:46:42;;;;;;;14.95;5.87;;;;;;;16.92;100.00;100009.51;1785946;80;21753;-83
2022/06/01 00:49:58;;;;;;;16.55;6.17;;;;;;;16.91;100.00;100018.34;1785748;80;21185;-83
2022/06/01 00:53:09;;;;;;;20.40;6.80;;;;;;;16.91;100.00;100028.01;1784118;80;21195;-83
2022/06/01 00:56:19;;;;;;;11.95;5.20;;;;;;;16.90;100.00;100023.56;1785747;80;21192;-84
2022/06/01 00:59:28;;;;;;;22.20;6.25;;;;;;;16.89;100.00;100026.02;1785508;80;21185;-83
2022/06/01 01:02:35;;;;;;;11.90;5.30;;;;;;;16.88;100.00;100021.53;1784271;80;21872;-84
2022/06/01 01:05:41;;;;;;;16.25;5.53;;;;;;;16.89;100.00;100024.64;1791934;80;21659;-83
2022/06/01 01:08:48;;;;;;;23.25;5.62;;;;;;;16.90;100.00;100016.66;1784605;80;21191;-83
2022/06/01 01:12:05;;;;;;;16.30;5.87;;;;;;;16.89;100.00;100014.09;1785678;80;21750;-83
2022/06/01 01:15:09;;;;;;;15.75;5.70;;;;;;;16.88;100.00;100014.63;1785150;80;21180;-83
2022/06/01 01:18:22;;;;;;;15.18;6.03;;;;;;;16.86;100.00;100031.98;1778902;80;21200;-83
2022/06/01 01:21:35;;;;;;;;;;;;;;;16.83;100.00;100018.06;1783021;80;21157;-84
2022/06/01 01:25:22;;;;;;;12.95;4.78;;;;;;;16.80;100.00;100023.22;1780347;80;20189;-83
2022/06/01 01:28:28;;;;;;;13.03;5.35;;;;;;;16.78;100.00;100026.72;1780288;80;21196;-83
2022/06/01 01:31:34;;;;;;;13.88;5.47;;;;;;;16.76;100.00;100021.97;1780064;80;21209;-84
2022/06/01 01:34:40;;;;;;;12.82;5.08;;;;;;;16.75;100.00;100022.51;1779001;80;21232;-83
2022/06/01 01:37:46;;;;;;;17.85;5.40;;;;;;;16.74;100.00;100012.50;1779752;80;21199;-83
2022/06/01 01:40:46;;;;;;;11.95;4.65;;;;;;;16.74;100.00;100022.17;1780110;80;21707;-83
2022/06/01 01:44:09;;;;;;;19.42;5.00;;;;;;;16.72;100.00;100008.30;1779026;80;21730;-84
2022/06/01 01:47:14;;;;;;;10.90;4.53;;;;;;;16.71;100.00;100012.09;1779984;80;21268;-83
2022/06/01 01:50:19;;;;;;;14.90;4.83;;;;;;;16.70;100.00;100011.25;1778941;80;21102;-84
2022/06/01 01:53:24;;;;;;;17.87;5.40;;;;;;;16.70;100.00;100013.14;1779574;80;21718;-83
2022/06/01 01:56:51;;;;;;;14.35;5.78;;;;;;;16.71;100.00;100010.72;1780250;80;21718;-83
2022/06/01 02:00:18;;;;;;;16.25;6.10;;;;;;;16.72;100.00;100005.53;1780032;80;21150;-84
2022/06/01 02:03:39;;;;;;;15.43;5.12;;;;;;;16.76;100.00;100008.16;1779316;80;21519;-84
2022/06/01 02:06:49;;;;;;;15.83;4.95;;;;;;;16.81;100.00;100003.65;1780041;80;21468;-77
2022/06/01 02:13:23;;;;;;;12.65;4.78;;;;;;;16.99;100.00;99995.97;1778703;80;21188;-83
2022/06/01 02:16:29;;;;;;;14.58;5.50;;;;;;;17.13;100.00;99995.85;1780123;80;21220;-83
2022/06/01 02:19:39;;;;;;;12.88;4.53;;;;;;;17.31;100.00;100002.27;1780249;80;21742;-83
2022/06/01 02:22:49;;;;;;;15.80;5.15;;;;;;;17.47;100.00;99999.42;1779877;80;21188;-84
2022/06/01 02:25:56;;;;;;;16.37;4.25;;;;;;;17.67;100.00;100000.58;1780345;80;21149;-83
2022/06/01 02:29:08;;;;;;;19.98;4.40;;;;;;;17.92;100.00;100012.97;1778932;80;21777;-83
2022/06/01 02:32:14;;;;;;;12.03;4.92;;;;;;;18.14;99.69;100015.57;1780188;80;21235;-84
2022/06/01 02:35:15;;;;;;;11.53;3.55;;;;;;;18.41;97.52;100013.84;1783392;80;21193;-82
2022/06/01 02:38:10;;;;;;;9.10;4.00;;;;;;;18.69;94.87;100019.33;1780160;80;21232;-83
2022/06/01 02:44:39;;;;;;;14.03;4.20;;;;;;;19.13;90.12;100020.73;1780315;80;21137;-83
2022/06/01 02:47:46;;;;;;;13.80;3.85;;;;;;;19.38;88.34;100021.88;1780215;80;21158;-83
2022/06/01 02:50:52;;;;;;;11.50;3.83;;;;;;;19.60;86.49;100020.22;1780227;80;21137;-83
2022/06/01 02:53:56;;;;;;;13.88;4.00;;;;;;;19.86;84.79;100023.03;1780335;80;21196;-84
2022/06/01 02:57:01;;;;;;;12.00;3.67;;;;;;;20.15;83.20;100024.47;1780312;80;21715;-84
2022/06/01 03:00:00;;;;;;;9.33;3.10;;;;;;;20.39;81.57;100028.84;1780158;80;21149;-83
2022/06/01 03:03:00;;;;;;;12.75;3.12;;;;;;;20.66;79.87;100024.95;1779348;80;21189;-84
2022/06/01 03:05:46;;;;;;;14.98;3.17;;;;;;;20.85;77.91;100021.41;1779189;80;21197;-83
2022/06/01 03:08:39;;;;;;;12.55;3.83;;;;;;;20.95;76.97;100022.69;1779045;80;21212;-83
2022/06/01 03:11:25;;;;;;;10.60;3.37;;;;;;;21.01;76.36;100024.45;1778602;80;21172;-83
2022/06/01 03:14:18;;;;;;;12.82;3.80;;;;;;;21.08;75.80;100032.09;1778700;80;21189;-83
2022/06/01 03:17:24;;;;;;;13.35;4.15;;;;;;;21.17;75.39;100023.08;1779669;80;21172;-83
2022/06/01 03:20:27;;;;;;;11.97;3.75;;;;;;;21.27;74.90;100021.55;1780464;80;21134;-84
2022/06/01 03:23:32;;;;;;;10.88;3.52;;;;;;;21.37;74.19;100021.75;1778836;80;21188;-83
2022/06/01 03:26:43;;;;;;;15.00;3.50;;;;;;;21.41;73.51;100025.70;1778898;80;21196;-84
2022/06/01 03:29:47;;;;;;;9.90;2.95;;;;;;;21.47;73.97;100019.12;1780310;80;21707;-83
2022/06/01 03:32:53;;;;;;;13.95;3.02;;;;;;;21.66;73.35;100014.11;1779879;80;21181;-84
2022/06/01 03:35:59;;;;;;;11.90;2.95;;;;;;;21.84;72.06;100015.20;1779451;80;21177;-83
2022/06/01 03:39:06;;;;;;;9.13;3.02;;;;;;;21.92;70.79;100018.07;1778879;80;21196;-83
2022/06/01 03:42:13;;;;;;;9.48;3.08;;;;;;;21.88;70.57;100014.14;1780124;80;21126;-83
2022/06/01 03:48:41;;;;;;;8.85;3.12;;;;;;;21.93;70.41;100015.60;1779219;80;21184;-83
2022/06/01 03:51:48;;;;;;;13.98;3.92;;;;;;;21.97;70.24;100013.95;1780036;80;21418;-83
2022/06/01 03:54:53;;;;;;;11.63;3.30;;;;;;;21.96;69.49;100013.67;1780187;80;21125;-83
2022/06/01 03:57:59;;;;;;;11.15;3.30;;;;;;;21.83;69.59;100026.05;1779625;80;21208;-83
2022/06/01 04:01:06;;;;;;;9.80;3.55;;;;;;;21.87;70.49;100023.57;1778725;80;21185;-83
2022/06/01 04:04:30;;;;;;;5.85;2.65;;;;;;;21.99;70.34;100024.30;1780150;80;21762;-84
2022/06/01 04:07:35;;;;;;;11.30;3.98;;;;;;;22.09;69.42;100025.82;1778773;80;21215;-83
2022/06/01 04:10:44;;;;;;;7.83;2.98;;;;;;;22.03;69.44;100026.03;1780199;80;21154;-83
2022/06/01 04:13:51;;;;;;;10.20;2.90;;;;;;;22.02;70.17;100022.92;1778873;80;21176;-84
2022/06/01 04:16:57;;;;;;;9.25;3.60;;;;;;;22.12;69.89;100014.20;1779169;80;21185;-83
2022/06/01 04:20:03;;;;;;;9.83;3.37;;;;;;;22.20;69.21;100016.52;1782044;80;22171;-83
2022/06/01 04:23:09;;;;;;;9.68;2.85;;;;;;;22.29;69.44;100018.30;1785448;80;21180;-84
2022/06/01 04:26:16;;;;;;;7.90;3.15;;;;;;;22.39;69.40;100019.80;1785087;80;21196;-83
2022/06/01 04:29:23;;;;;;;7.43;3.10;;;;;;;22.51;68.55;100023.02;1785868;80;21694;-83
2022/06/01 04:32:36;;;;;;;8.33;3.00;;;;;;;22.62;68.17;100025.62;1785547;80;21792;-83
2022/06/01 04:35:41;;;;;;;12.60;3.30;;;;;;;22.75;67.66;100029.11;1784378;80;21198;-83
2022/06/01 04:39:04;;;;;;;12.20;3.60;;;;;;;22.93;66.50;100034.34;1785342;80;21141;-84
2022/06/01 04:42:11;;;;;;;15.13;3.37;;;;;;;23.19;66.01;100048.80;1784189;80;21156;-84
2022/06/01 04:45:20;;;;;;;15.72;3.67;;;;;;;23.42;63.90;100046.75;1784363;80;21157;-84
2022/06/01 04:48:26;;;;;;;8.98;2.92;;;;;;;23.59;62.98;100044.66;1785728;80;21841;-84
2022/06/01 04:51:32;;;;;;;16.27;4.30;;;;;;;23.82;61.92;100052.38;1784111;80;21145;-83
2022/06/01 04:54:38;;;;;;;10.23;3.75;;;;;;;23.98;60.39;100049.94;1784486;80;21732;-83
2022/06/01 04:57:43;;;;;;;15.43;4.12;;;;;;;24.15;59.73;100053.39;1784344;80;21153;-83
2022/06/01 05:00:50;;;;;;;8.55;3.27;;;;;;;24.34;58.76;100056.55;1785663;80;21148;-83
2022/06/01 05:03:56;;;;;;;12.10;3.77;;;;;;;24.42;58.22;100046.84;1784479;80;21903;-78
2022/06/01 05:07:03;;;;;;;11.65;3.50;;;;;;;24.55;57.98;100053.28;1785013;80;21173;-78
2022/06/01 05:10:09;;;;;;;9.28;3.33;;;;;;;24.69;57.17;100051.64;1784352;80;21172;-83
2022/06/01 05:13:15;;;;;;;13.83;4.25;;;;;;;24.77;57.67;100055.03;1785208;80;21200;-83
2022/06/01 05:16:21;;;;;;;13.88;4.20;;;;;;;24.86;57.57;100057.57;1784215;80;21252;-83
2022/06/01 05:19:28;;;;;;;13.40;3.80;;;;;;;24.95;56.65;100054.51;1784377;80;21216;-83
2022/06/01 05:22:36;;;;;;;14.25;4.22;;;;;;;25.05;56.66;100057.87;1785305;80;21832;-83
2022/06/01 05:25:41;;;;;;;13.85;4.10;;;;;;;25.16;55.81;100053.98;1785619;80;21188;-83
2022/06/01 05:28:47;;;;;;;9.23;4.08;;;;;;;25.24;56.08;100058.48;1784308;80;21167;-84
2022/06/01 05:31:54;;;;;;;13.30;4.50;;;;;;;25.39;57.03;100060.44;1785679;80;21145;-83
2022/06/01 05:34:52;;;;;;;15.88;4.35;;;;;;;25.53;55.42;100066.88;1785789;80;21148;-83
2022/06/01 05:37:45;;;;;;;12.65;3.85;;;;;;;25.54;54.59;100063.78;1784187;80;21196;-83
2022/06/01 05:40:33;;;;;;;15.15;4.35;;;;;;;25.47;55.13;100066.04;1785675;80;21752;-83
2022/06/01 05:43:39;;;;;;;12.75;3.95;;;;;;;25.47;54.97;100061.27;1784708;80;21193;-83
2022/06/01 05:46:39;;;;;;;17.27;4.12;;;;;;;25.47;54.94;100073.88;1785721;80;21212;-83
2022/06/01 05:49:33;;;;;;;12.82;4.03;;;;;;;25.44;54.54;100072.19;1785687;80;21709;-83
2022/06/01 05:52:18;;;;;;;13.40;4.58;;;;;;;25.46;55.60;100062.97;1785405;80;21228;-83
2022/06/01 05:55:13;;;;;;;12.18;4.37;;;;;;;25.53;56.01;100060.70;1785607;80;21764;-83
2022/06/01 05:58:28;;;;;;;13.00;3.85;;;;;;;25.57;55.72;100059.02;1784444;80;21157;-83
2022/06/01 06:01:33;;;;;;;14.30;4.20;;;;;;;25.48;55.45;100060.15;1784012;80;21260;-83
2022/06/01 06:04:40;;;;;;;13.83;4.78;;;;;;;25.38;55.81;100065.76;1763600;80;21149;-83
2022/06/01 06:07:46;;;;;;;13.18;3.90;;;;;;;25.13;56.47;100060.16;1754177;80;21793;-83
2022/06/01 06:10:52;;;;;;;21.23;4.30;;;;;;;25.02;56.99;100053.66;1756805;80;21248;-83
2022/06/01 06:14:01;;;;;;;10.28;3.70;;;;;;;24.96;57.65;100060.38;1753398;82;21255;-83
2022/06/01 06:17:06;;;;;;;14.43;3.95;;;;;;;24.92;58.79;100050.86;1754459;82;21817;-84
2022/06/01 06:20:11;;;;;;;14.78;4.42;;;;;;;25.02;59.44;100049.47;1753527;82;21216;-82
2022/06/01 06:23:17;;;;;;;10.48;3.75;;;;;;;25.10;58.81;100048.95;1752689;82;21184;-83
2022/06/01 06:26:23;;;;;;;9.63;3.77;;;;;;;25.18;59.39;100054.57;1774851;80;21196;-83
2022/06/01 06:29:29;;;;;;;10.93;4.35;;;;;;;25.20;58.80;100054.55;1781320;80;21771;-84
2022/06/01 06:32:34;;;;;;;11.95;4.20;;;;;;;25.18;59.16;100053.17;1785472;80;21248;-82
2022/06/01 06:35:39;;;;;;;11.88;3.70;;;;;;;25.29;58.82;100046.44;1787248;79;21185;-83
2022/06/01 06:38:45;;;;;;;8.75;3.37;;;;;;;25.44;58.79;100059.03;1783599;79;21200;-83
2022/06/01 06:41:50;;;;;;;15.90;4.17;;;;;;;25.56;58.04;100054.55;1775531;79;21160;-83
2022/06/01 06:44:44;;;;;;;10.88;4.42;;;;;;;25.65;57.90;100053.43;1769897;80;21750;-83
2022/06/01 06:47:50;;;;;;;12.77;3.70;;;;;;;25.75;58.45;100050.60;1758456;80;21228;-83
2022/06/01 06:50:57;;;;;;;12.93;4.22;;;;;;;25.86;57.43;100048.64;1730491;81;21779;-83
2022/06/01 06:54:05;;;;;;;10.38;4.28;;;;;;;25.92;56.29;100044.70;1724299;81;21199;-83
2022/06/01 06:57:11;;;;;;;13.53;4.22;;;;;;;25.99;56.79;100046.09;1732343;82;22258;-83
2022/06/01 07:00:17;;;;;;;17.50;4.42;;;;;;;26.28;55.55;100038.98;1699959;84;21208;-83
2022/06/01 07:03:26;;;;;;;15.63;4.22;;;;;;;26.28;55.55;100038.98;1704405;82;21171;-83
2022/06/01 07:06:32;;;;;;;13.43;4.42;;;;;;;26.36;55.32;100041.20;1723042;83;21193;-83
2022/06/01 07:09:39;;;;;;;16.70;4.10;;;;;;;26.35;54.35;100043.70;1694552;83;21780;-83
2022/06/01 07:12:45;;;;;;;10.43;3.65;;;;;;;26.38;54.43;100045.94;1697434;82;21196;-83
2022/06/01 07:15:52;;;;;;;13.58;3.98;;;;;;;26.50;54.51;100047.89;1714263;83;21157;-82
2022/06/01 07:18:58;;;;;;;16.20;4.37;;;;;;;26.58;54.67;100050.63;1701318;82;21208;-83
2022/06/01 07:22:04;;;;;;;12.55;4.05;;;;;;;26.68;53.92;100062.66;1714610;82;21204;-83
2022/06/01 07:25:09;;;;;;;13.55;4.12;;;;;;;26.72;53.23;100052.54;1686622;83;21164;-83
2022/06/01 07:28:16;;;;;;;15.23;4.53;;;;;;;26.85;53.61;100053.84;1710260;83;21198;-84
2022/06/01 07:31:22;;;;;;;16.55;4.00;;;;;;;26.85;53.61;100053.84;1713873;83;21235;-83
2022/06/01 07:34:28;;;;;;;16.07;4.40;;;;;;;27.03;53.21;100052.32;1719023;82;21177;-83
2022/06/01 07:44:19;;;;;;;13.18;4.50;;;;;;;27.38;52.18;100061.61;1728041;81;21161;-83
2022/06/01 07:47:24;;;;;;;12.75;4.53;;;;;;;27.46;52.25;100058.19;1734228;80;21224;-84
2022/06/01 07:50:31;;;;;;;13.75;4.08;;;;;;;27.56;51.52;100060.89;1710609;81;21837;-83
2022/06/01 07:53:39;;;;;;;11.73;4.17;;;;;;;27.64;51.34;100056.62;1713419;83;21806;-83
2022/06/01 07:56:44;;;;;;;20.23;5.17;;;;;;;27.69;51.04;100059.38;1716822;82;21184;-83
2022/06/01 07:59:50;;;;;;;14.55;4.40;;;;;;;27.74;50.14;100047.55;1709114;82;21197;-83
2022/06/01 08:02:59;;;;;;;13.20;4.45;;;;;;;27.86;49.71;100051.38;1711174;82;21260;-83
2022/06/01 08:06:04;;;;;;;13.30;4.80;;;;;;;27.88;49.50;100044.04;1704347;83;21236;-83
2022/06/01 08:09:28;;;;;;;16.45;4.45;;;;;;;27.93;50.03;100051.01;1709519;83;21240;-83
2022/06/01 08:16:00;;;;;;;12.80;4.40;;;;;;;28.11;48.77;100046.02;1729027;82;21240;-83
2022/06/01 08:19:07;;;;;;;10.82;3.77;;;;;;;28.21;48.90;100046.47;1712680;83;21284;-83
2022/06/01 08:22:15;;;;;;;17.30;4.78;;;;;;;28.28;47.97;100044.98;1702362;83;21164;-83
2022/06/01 08:25:22;;;;;;;15.40;4.17;;;;;;;28.37;48.04;100042.91;1719741;82;21157;-83
2022/06/01 08:28:27;;;;;;;12.80;4.47;;;;;;;28.44;47.56;100040.59;1751218;81;21221;-83
2022/06/01 08:31:33;;;;;;;16.67;4.40;;;;;;;28.45;47.34;100038.87;1761966;81;21232;-83
2022/06/01 08:34:39;;;;;;;17.62;4.35;;;;;;;28.52;46.50;100034.30;1746150;81;21497;-83
2022/06/01 08:37:45;;;;;;;13.58;3.83;;;;;;;28.53;47.93;100031.74;1767044;81;21197;-84
2022/06/01 08:41:03;;;;;;;16.30;4.05;;;;;;;28.62;47.80;100032.74;1759980;79;21693;-77
2022/06/01 08:44:12;;;;;;;12.68;4.08;;;;;;;28.63;47.81;100028.78;1753957;81;21219;-78
2022/06/01 08:47:29;;;;;;;13.60;3.90;;;;;;;28.63;47.17;100035.81;1753062;81;21232;-77
2022/06/01 08:50:38;;;;;;;15.70;4.28;;;;;;;28.62;46.86;100027.12;1749382;81;21161;-78
2022/06/01 08:53:44;;;;;;;20.97;4.40;;;;;;;28.62;46.77;100026.28;1723604;81;21564;-83
2022/06/01 08:56:54;;;;;;;17.40;4.62;;;;;;;28.72;46.40;100024.15;1766791;79;21730;-83
2022/06/01 09:00:07;;;;;;;20.88;5.00;;;;;;;28.75;46.62;100033.41;1758274;80;21185;-84
2022/06/01 09:03:40;;;;;;;16.57;4.30;;;;;;;28.81;45.92;100030.52;1777273;79;21854;-83
2022/06/01 09:06:53;;;;;;;17.10;4.87;;;;;;;28.85;46.17;100032.98;1770175;79;21181;-84
2022/06/01 09:10:18;;;;;;;20.48;4.62;;;;;;;28.88;44.96;100033.77;1779804;79;21126;-83
2022/06/01 09:13:27;;;;;;;11.65;3.92;;;;;;;28.91;45.77;100034.00;1756614;79;21157;-77
2022/06/01 09:16:49;;;;;;;19.40;4.20;;;;;;;29.03;45.88;100033.58;1775457;79;21161;-84
2022/06/01 09:23:22;;;;;;;20.82;4.87;;;;;;;29.18;45.04;100036.72;1759421;79;21220;-78
2022/06/01 09:26:33;;;;;;;18.07;4.35;;;;;;;29.18;44.58;100037.55;1771396;79;21189;-84
2022/06/01 09:29:41;;;;;;;13.22;4.15;;;;;;;29.14;45.03;100036.48;1787449;79;21524;-84
2022/06/01 09:32:48;;;;;;;13.98;4.03;;;;;;;29.15;44.77;100038.16;1784972;79;21177;-83
2022/06/01 09:36:16;;;;;;;21.73;4.22;;;;;;;29.23;43.68;100041.69;1766116;80;21217;-84
2022/06/01 09:39:25;;;;;;;17.52;4.08;;;;;;;29.22;43.17;100042.84;1752922;80;21179;-83
2022/06/01 09:42:36;;;;;;;22.25;4.70;;;;;;;29.23;43.89;100043.09;1789510;79;21185;-84
2022/06/01 09:45:56;;;;;;;17.60;4.70;;;;;;;29.29;44.08;100037.63;1770391;79;21204;-84
2022/06/01 09:49:03;;;;;;;12.05;3.80;;;;;;;29.35;43.43;100046.00;1774717;79;21518;-84
2022/06/01 09:52:21;;;;;;;14.78;4.85;;;;;;;29.32;42.81;100039.59;1792523;79;21220;-83
2022/06/01 09:55:30;;;;;;;12.07;3.80;;;;;;;29.36;42.71;100036.39;1776860;79;21172;-83
2022/06/01 10:09:21;;;;;;;16.20;5.15;;;;;;;29.66;42.41;100041.53;1776291;79;21177;-85
2022/06/01 10:12:54;;;;;;;13.83;4.60;;;;;;;29.74;42.23;100037.17;1793425;79;21177;-83
2022/06/01 10:15:59;;;;;;;16.80;3.92;;;;;;;29.75;42.34;100038.27;1733376;82;21176;-84
2022/06/01 10:19:05;;;;;;;18.07;4.58;;;;;;;29.77;41.80;100037.94;1723381;82;21216;-83
2022/06/01 10:22:23;;;;;;;17.42;4.40;;;;;;;29.77;41.38;100040.77;1714550;81;21162;-81
2022/06/01 10:26:01;;;;;;;17.15;4.53;;;;;;;29.76;41.69;100045.56;1704605;82;22059;-83
2022/06/01 10:29:18;;;;;;;14.18;4.10;;;;;;;29.71;41.99;100038.62;1671003;83;21189;-83
2022/06/01 10:32:32;;;;;;;14.43;4.03;;;;;;;29.73;42.04;100040.53;1684322;85;21212;-84
2022/06/01 10:35:52;;;;;;;62.53;7.33;;;;;;;29.72;42.08;100041.69;1681109;83;21216;-83
2022/06/01 10:39:08;;;;;;;16.90;4.75;;;;;;;29.76;42.30;100033.45;1668705;85;21209;-77
2022/06/01 10:43:16;;;;;;;15.55;3.98;;;;;;;29.85;41.81;100034.98;1677662;84;21248;-78
2022/06/01 10:45:37;;;;;;;13.30;4.08;;;;;;;29.92;41.86;100042.45;1695073;83;21801;-78
2022/06/01 10:48:46;;;;;;;16.93;4.12;;;;;;;29.99;40.88;100037.25;1667939;85;21450;-77
2022/06/01 10:51:56;;;;;;;;;;;;;;;30.06;40.52;100041.88;1689764;83;21228;-77
2022/06/01 10:55:24;;;;;;;11.25;3.77;;;;;;;30.15;40.46;100028.76;1669054;83;20188;-77
2022/06/01 10:58:31;;;;;;;20.77;4.22;;;;;;;30.21;39.84;100039.38;1684204;83;21216;-77
2022/06/01 11:01:51;;;;;;;11.53;3.40;;;;;;;30.16;39.89;100036.64;1690460;85;21221;-78
2022/06/01 11:05:16;;;;;;;15.78;3.98;;;;;;;30.18;39.32;100036.60;1691346;83;21193;-77
2022/06/01 11:08:30;;;;;;;18.57;4.05;;;;;;;30.21;39.93;100033.17;1687870;85;21730;-78
2022/06/01 11:12:15;;;;;;;23.47;4.30;;;;;;;30.27;40.95;100033.31;1686911;83;21177;-78
2022/06/01 11:15:32;;;;;;;13.68;4.05;;;;;;;30.33;40.70;100034.61;1647967;85;21306;-78
2022/06/01 11:19:08;;;;;;;12.70;4.30;;;;;;;30.35;40.46;100023.28;1664025;84;21196;-77
2022/06/01 11:22:27;;;;;;;16.10;4.10;;;;;;;30.42;40.14;100027.08;1680465;85;21212;-77
2022/06/01 11:25:50;;;;;;;17.37;4.30;;;;;;;30.41;41.11;100021.19;1687502;85;21161;-77
2022/06/01 11:29:31;;;;;;;18.37;4.10;;;;;;;30.36;40.70;100024.12;1680686;85;21168;-77
2022/06/01 11:33:01;;;;;;;15.60;3.77;;;;;;;30.28;41.14;100016.64;1706606;84;21232;-77
2022/06/01 11:36:13;;;;;;;;;;;;;;;30.29;41.67;100021.13;1684782;85;21205;-77
2022/06/01 11:39:43;;;;;;;19.07;4.97;;;;;;;30.36;40.84;100010.02;1677068;85;20218;-77
2022/06/01 11:42:59;;;;;;;18.95;4.10;;;;;;;30.43;40.59;100011.81;1704953;84;21157;-83
2022/06/01 11:46:34;;;;;;;13.60;3.98;;;;;;;30.44;40.74;100024.22;1687410;82;21237;-82
2022/06/01 11:49:50;;;;;;;19.92;4.10;;;;;;;30.41;40.13;100015.54;1692719;84;21217;-82
2022/06/01 11:53:09;;;;;;;12.03;3.77;;;;;;;30.39;40.21;100013.59;1697848;84;21205;-82
2022/06/01 11:56:31;;;;;;;12.60;3.95;;;;;;;30.40;40.63;100013.87;1705320;82;21236;-82
2022/06/01 11:59:42;;;;;;;14.10;3.70;;;;;;;30.38;40.16;100013.34;1701554;84;21160;-83
2022/06/01 12:02:53;;;;;;;18.12;4.60;;;;;;;30.35;40.47;100000.72;1693447;82;21765;-77
2022/06/01 12:06:18;;;;;;;14.90;4.53;;;;;;;30.42;40.51;100009.57;1677850;85;21232;-77
2022/06/01 12:09:55;;;;;;;17.70;3.77;;;;;;;30.49;40.86;100013.39;1667292;85;21632;-77
2022/06/01 12:13:12;;;;;;;19.98;4.50;;;;;;;30.52;41.46;100022.04;1690228;84;21264;-77
2022/06/01 12:16:35;;;;;;;9.83;3.50;;;;;;;30.49;40.29;100009.16;1673104;83;21197;-78
2022/06/01 12:19:44;;;;;;;20.75;3.95;;;;;;;30.52;40.11;100008.51;1692710;82;21169;-78
2022/06/01 12:30:13;;;;;;;9.88;3.60;;;;;;;30.60;40.38;100002.70;1691343;85;21801;-77
2022/06/01 12:33:20;;;;;;;11.57;4.17;;;;;;;30.66;39.89;99993.78;1714780;82;21172;-77
2022/06/01 12:36:25;;;;;;;20.25;4.03;;;;;;;30.70;40.06;99989.76;1731753;82;21223;-77
2022/06/01 12:39:51;;;;;;;15.40;3.60;;;;;;;30.68;39.79;99987.84;1691334;85;21634;-77
2022/06/01 12:43:01;;;;;;;14.87;4.78;;;;;;;30.68;40.21;99985.02;1708399;84;21530;-77
2022/06/01 12:46:08;;;;;;;13.22;4.20;;;;;;;30.70;40.89;99984.11;1680264;83;21734;-77
2022/06/01 12:49:40;;;;;;;17.80;4.25;;;;;;;30.66;40.77;99976.02;1681815;83;21257;-77
2022/06/01 12:52:47;;;;;;;19.00;3.95;;;;;;;30.62;40.79;99972.99;1708365;82;21680;-77
2022/06/01 12:55:48;;;;;;;10.82;3.75;;;;;;;30.54;40.65;99966.72;1683115;84;21213;-77
2022/06/01 12:58:57;;;;;;;15.60;3.80;;;;;;;30.38;41.06;99958.33;1707262;84;21188;-82
2022/06/01 13:02:06;;;;;;;16.82;4.78;;;;;;;30.28;41.61;99958.81;1682900;85;21218;-83
2022/06/01 13:05:14;;;;;;;14.68;3.72;;;;;;;30.31;41.34;99964.41;1655998;86;21232;-83
2022/06/01 13:08:25;;;;;;;27.37;4.50;;;;;;;30.34;40.93;99953.05;1680757;85;21224;-83
2022/06/01 13:11:36;;;;;;;12.33;4.22;;;;;;;30.38;40.56;99947.04;1666960;85;21182;-83
2022/06/01 13:14:41;;;;;;;12.43;4.10;;;;;;;30.44;40.82;99952.81;1704489;84;21781;-83
2022/06/01 13:17:57;;;;;;;14.43;3.90;;;;;;;30.59;40.51;99946.01;1698993;84;21212;-83
2022/06/01 13:21:16;;;;;;;12.15;3.85;;;;;;;30.76;40.36;99941.93;1708561;84;21216;-83
2022/06/01 13:24:22;;;;;;;16.15;3.90;;;;;;;30.91;42.52;99945.81;1683327;85;21261;-83
2022/06/01 13:27:29;;;;;;;12.95;3.85;;;;;;;30.98;40.76;99936.88;1708892;84;21212;-83
2022/06/01 13:30:37;;;;;;;13.08;4.28;;;;;;;31.01;40.65;99939.06;1688955;84;21299;-83
2022/06/01 13:33:41;;;;;;;14.55;3.67;;;;;;;30.97;41.16;99936.62;1738533;82;21209;-83
2022/06/01 13:36:48;;;;;;;16.73;3.58;;;;;;;30.74;42.69;99925.91;1738052;82;21245;-83
2022/06/01 13:40:12;;;;;;;11.97;3.37;;;;;;;30.31;42.71;99911.39;1739011;82;21185;-83
2022/06/01 13:43:25;;;;;;;15.35;3.67;;;;;;;29.94;43.76;99906.25;1738586;82;21727;-83
2022/06/01 13:46:48;;;;;;;13.25;3.40;;;;;;;29.68;43.88;99896.91;1774582;81;21157;-83
2022/06/01 13:49:56;;;;;;;14.58;3.40;;;;;;;29.59;43.49;99894.56;1774667;81;21156;-83
2022/06/01 13:53:09;;;;;;;11.60;2.80;;;;;;;29.60;42.50;99894.84;1774567;81;21172;-83
2022/06/01 13:56:25;;;;;;;15.00;3.62;;;;;;;29.58;42.24;99897.13;1775400;81;21566;-83
2022/06/01 13:59:46;;;;;;;9.30;3.08;;;;;;;29.52;42.20;99929.34;1734904;81;22215;-83
2022/06/01 14:03:19;;;;;;;17.85;3.33;;;;;;;29.41;42.42;99953.23;1728382;83;21184;-82
2022/06/01 14:06:25;;;;;;;11.80;3.95;;;;;;;29.29;42.37;99957.94;1673562;85;21847;-83
2022/06/01 14:09:29;;;;;;;13.60;3.42;;;;;;;29.23;42.76;99950.16;1728766;83;21145;-83
2022/06/01 14:12:22;;;;;;;11.22;3.00;;;;;;;29.28;43.72;99954.29;1728317;83;21789;-83
2022/06/01 14:15:08;;;;;;;13.13;3.50;;;;;;;29.32;44.52;99942.42;1758967;81;21205;-83
2022/06/01 14:18:00;;;;;;;16.57;4.55;;;;;;;29.31;44.60;99946.35;1769869;81;21185;-82
2022/06/01 14:21:06;;;;;;;14.98;3.70;;;;;;;29.31;44.18;99950.00;1768375;80;21165;-82
2022/06/01 14:24:13;;;;;;;12.75;3.08;;;;;;;29.32;44.64;99947.47;1769989;81;21533;-83
2022/06/01 14:30:42;;;;;;;9.08;2.90;;;;;;;29.07;44.15;99952.97;1769440;80;21225;-82
2022/06/01 14:33:48;;;;;;;10.38;3.10;;;;;;;28.72;43.83;99949.58;1769780;81;21197;-83
2022/06/01 14:36:53;;;;;;;11.65;3.00;;;;;;;28.41;43.80;99949.77;1769983;81;21157;-82
2022/06/01 14:40:01;;;;;;;12.82;2.92;;;;;;;28.07;43.64;99949.36;1760892;81;21754;-83
2022/06/01 14:43:06;;;;;;;12.88;2.85;;;;;;;27.69;42.48;99973.12;1739226;82;21209;-82
2022/06/01 14:46:13;;;;;;;9.13;2.87;;;;;;;27.31;42.17;99962.28;1717092;82;21192;-82
2022/06/01 14:49:20;;;;;;;9.83;2.55;;;;;;;27.05;42.75;99962.20;1738953;82;21170;-82
2022/06/01 14:52:25;;;;;;;17.17;3.83;;;;;;;26.80;43.16;99938.84;1738890;82;21185;-83
2022/06/01 14:55:25;;;;;;;12.00;2.70;;;;;;;26.80;43.16;99938.84;1738347;82;21174;-82
2022/06/01 14:58:31;;;;;;;9.23;2.65;;;;;;;26.74;43.57;99940.86;1738507;81;21690;-81
2022/06/01 15:01:54;;;;;;;9.53;2.55;;;;;;;26.68;43.74;99970.09;1739339;82;21179;-82
2022/06/01 15:05:03;;;;;;;6.20;2.55;;;;;;;26.68;43.74;99970.09;1739059;82;21791;-82
2022/06/01 15:08:10;;;;;;;13.53;2.92;;;;;;;26.67;44.23;99981.02;1737815;81;21214;-81
2022/06/01 15:11:16;;;;;;;16.80;3.02;;;;;;;26.68;43.54;99989.72;1765120;81;21834;-83
2022/06/01 15:14:21;;;;;;;11.22;2.80;;;;;;;26.69;43.61;99991.39;1768664;81;21205;-83
2022/06/01 15:17:32;;;;;;;11.33;2.75;;;;;;;26.70;43.49;99988.02;1739212;82;21201;-83